Rices Landing, Pennsylvania
Current Conditions -  °F | °C
As of 6:35 PM on Monday 20 Oct 2014 (Local Time) from KAFJ Reporting Station
Overcast Overcast  
Wind Chill: 54°   Ceiling: 9500
Heat Index: 54°   Visibility: 10mi
Dew Point: 41°   Wind: 3mph
Humidity: 62%   Direction: 200°SSW
Pressure: 29.91"   Gusts: NA
Location:  39.95°N, 80°W
Report Text: KAFJ 202235Z AUTO 20003KT 10SM FEW043 BKN095 OVC120 12/05 A2991 RMK AO1
Loading
Personal Weather Stations






























Interactive Weather Map
Tropical Storm Tracking
New forecast layout! Learn more

10-Day Weather Forecast

Advertisements
Track Severe Weather on mobile